createdAt,value
2022-11-23T00:01:40.632Z,7.39
2022-11-23T00:04:15.364Z,7.29
2022-11-23T00:06:47.637Z,7.23
2022-11-23T00:09:19.922Z,7.27
2022-11-23T00:11:52.200Z,7.30
2022-11-23T00:14:24.507Z,7.29
2022-11-23T00:16:56.780Z,7.26
2022-11-23T00:19:29.297Z,7.26
2022-11-23T00:22:01.949Z,7.28
2022-11-23T00:24:34.309Z,7.32
2022-11-23T00:27:06.696Z,7.34
2022-11-23T00:29:38.900Z,7.37
2022-11-23T00:32:11.143Z,7.35
2022-11-23T00:34:43.724Z,7.33
2022-11-23T00:37:16.000Z,7.35
2022-11-23T00:39:48.321Z,7.36
2022-11-23T00:42:20.681Z,7.33
2022-11-23T00:44:52.930Z,7.27
2022-11-23T00:47:25.446Z,7.26
2022-11-23T00:49:57.689Z,7.27
2022-11-23T00:52:29.990Z,7.33
2022-11-23T00:55:02.249Z,7.35
2022-11-23T00:57:36.025Z,7.38
2022-11-23T01:00:12.716Z,7.31
2022-11-23T01:02:45.055Z,7.29
2022-11-23T01:05:17.606Z,7.28
2022-11-23T01:07:49.902Z,7.32
2022-11-23T01:10:22.164Z,7.34
2022-11-23T01:12:54.480Z,7.31
2022-11-23T01:15:27.124Z,7.30
2022-11-23T01:17:57.773Z,7.27
2022-11-23T01:20:29.996Z,7.22
2022-11-23T01:23:02.412Z,7.22
2022-11-23T01:25:36.916Z,7.18
2022-11-23T01:28:09.409Z,7.17
2022-11-23T01:30:41.844Z,7.24
2022-11-23T01:33:14.140Z,7.25
2022-11-23T01:35:46.474Z,7.23
2022-11-23T01:41:24.702Z,7.27
2022-11-23T01:43:57.613Z,7.26
2022-11-23T01:46:30.013Z,7.26
2022-11-23T01:49:05.625Z,7.30
2022-11-23T01:51:40.902Z,7.35
2022-11-23T01:54:15.979Z,7.39
2022-11-23T01:56:52.240Z,7.41
2022-11-23T01:59:24.963Z,7.39
2022-11-23T02:01:55.592Z,7.37
2022-11-23T02:04:31.544Z,7.27
2022-11-23T02:07:05.166Z,7.23
2022-11-23T02:09:37.837Z,7.30
2022-11-23T02:12:11.426Z,7.32
2022-11-23T02:14:44.154Z,7.28
2022-11-23T02:17:16.864Z,7.31
2022-11-23T02:19:50.064Z,7.35
2022-11-23T02:22:28.329Z,7.39
2022-11-23T02:25:02.435Z,7.44
2022-11-23T02:27:34.814Z,7.49
2022-11-23T02:30:08.495Z,7.53
2022-11-23T02:32:41.255Z,7.53
2022-11-23T02:35:12.531Z,7.49
2022-11-23T02:37:45.022Z,7.46
2022-11-23T02:40:21.956Z,7.45
2022-11-23T02:42:54.445Z,7.47
2022-11-23T02:45:33.140Z,7.51
2022-11-23T02:48:05.656Z,7.55
2022-11-23T02:50:38.073Z,7.53
2022-11-23T02:53:10.605Z,7.55
2022-11-23T02:55:43.013Z,7.50
2022-11-23T02:58:15.480Z,7.42
2022-11-23T03:00:46.252Z,7.44
2022-11-23T03:03:18.555Z,7.41
2022-11-23T03:05:50.817Z,7.38
2022-11-23T03:08:23.132Z,7.36
2022-11-23T03:10:55.443Z,7.34
2022-11-23T03:13:27.830Z,7.33
2022-11-23T03:16:00.058Z,7.35
2022-11-23T03:18:32.304Z,7.41
2022-11-23T03:21:08.897Z,7.44
2022-11-23T03:23:41.380Z,7.44
2022-11-23T03:26:13.804Z,7.48
2022-11-23T03:28:46.104Z,7.49
2022-11-23T03:31:18.370Z,7.49
2022-11-23T03:33:50.601Z,7.55
2022-11-23T03:36:22.875Z,7.58
2022-11-23T03:38:55.184Z,7.57
2022-11-23T03:41:27.383Z,7.54
2022-11-23T03:44:00.078Z,7.54
2022-11-23T03:46:30.650Z,7.64
2022-11-23T03:49:02.992Z,7.73
2022-11-23T03:51:35.246Z,7.74
2022-11-23T03:54:07.949Z,7.71
2022-11-23T03:56:38.467Z,7.72
2022-11-23T03:59:11.077Z,7.72
2022-11-23T04:01:41.737Z,7.70
2022-11-23T04:04:13.912Z,7.72
2022-11-23T04:06:46.166Z,7.79
2022-11-23T04:09:18.427Z,7.90
2022-11-23T04:11:50.703Z,7.98
2022-11-23T04:18:41.872Z,8.18
2022-11-23T04:21:14.255Z,8.22
2022-11-23T04:23:49.022Z,8.24
2022-11-23T04:26:21.356Z,8.25
2022-11-23T04:28:53.647Z,8.28
2022-11-23T04:31:25.797Z,8.36
2022-11-23T04:33:59.067Z,8.40
2022-11-23T04:36:31.592Z,8.42
2022-11-23T04:43:55.904Z,8.42
2022-11-23T04:46:28.391Z,8.43
2022-11-23T04:48:59.193Z,8.48
2022-11-23T04:51:31.331Z,8.54
2022-11-23T04:54:03.585Z,8.61
2022-11-23T04:56:36.038Z,8.68
2022-11-23T04:59:07.467Z,8.73
2022-11-23T05:01:39.664Z,8.77
2022-11-23T05:04:17.435Z,8.81
2022-11-23T05:06:50.000Z,8.84
2022-11-23T05:09:22.504Z,8.94
2022-11-23T05:11:54.692Z,9.03
2022-11-23T05:14:27.109Z,9.04
2022-11-23T05:16:59.247Z,9.05
2022-11-23T05:19:31.610Z,9.05
2022-11-23T05:22:04.014Z,9.09
2022-11-23T05:24:36.216Z,9.15
2022-11-23T05:27:08.478Z,9.17
2022-11-23T05:29:40.781Z,9.19
2022-11-23T05:32:13.093Z,9.16
2022-11-23T05:34:45.461Z,9.14
2022-11-23T05:37:18.122Z,9.19
2022-11-23T05:39:48.606Z,9.25
2022-11-23T05:42:20.856Z,9.22
2022-11-23T05:44:53.145Z,9.22
2022-11-23T05:47:25.539Z,9.20
2022-11-23T05:49:57.815Z,9.20
2022-11-23T05:52:30.174Z,9.25
2022-11-23T05:55:02.404Z,9.27
2022-11-23T05:57:34.761Z,9.32
2022-11-23T06:00:08.514Z,9.33
2022-11-23T06:02:41.341Z,9.37
2022-11-23T06:05:14.425Z,9.39
2022-11-23T06:07:46.768Z,9.38
2022-11-23T06:10:19.308Z,9.41
2022-11-23T06:12:52.706Z,9.45
2022-11-23T06:15:24.956Z,9.45
2022-11-23T06:17:59.746Z,9.46
2022-11-23T06:20:32.259Z,9.46
2022-11-23T06:23:04.475Z,9.47
2022-11-23T06:25:38.570Z,9.50
2022-11-23T06:28:10.974Z,9.55
2022-11-23T06:30:43.223Z,9.59
2022-11-23T06:33:15.680Z,9.64
2022-11-23T06:35:55.134Z,9.65
2022-11-23T06:38:27.619Z,9.74
2022-11-23T06:41:01.986Z,9.84
2022-11-23T06:43:34.448Z,9.88
2022-11-23T06:46:08.361Z,9.92
2022-11-23T06:48:40.747Z,9.92
2022-11-23T06:51:13.074Z,9.92
2022-11-23T06:53:45.329Z,9.94
2022-11-23T06:56:17.575Z,9.97
2022-11-23T06:58:49.757Z,10.01
2022-11-23T07:01:22.105Z,10.06
2022-11-23T07:03:52.802Z,10.11
2022-11-23T07:06:25.092Z,10.14
2022-11-23T07:08:58.540Z,10.12
2022-11-23T07:11:30.698Z,10.10
2022-11-23T07:14:02.821Z,10.11
2022-11-23T07:16:35.051Z,10.17
2022-11-23T07:19:07.349Z,10.24
2022-11-23T07:21:39.867Z,10.33
2022-11-23T07:24:12.410Z,10.38
2022-11-23T07:26:42.981Z,10.42
2022-11-23T07:29:15.200Z,10.43
2022-11-23T07:31:47.471Z,10.45
2022-11-23T07:34:19.671Z,10.49
2022-11-23T07:36:51.853Z,10.51
2022-11-23T07:39:41.919Z,10.48
2022-11-23T07:42:32.432Z,10.50
2022-11-23T07:45:08.461Z,10.50
2022-11-23T07:47:40.880Z,10.50
2022-11-23T07:50:14.196Z,10.54
2022-11-23T07:52:46.371Z,10.54
2022-11-23T07:55:18.700Z,10.50
2022-11-23T07:57:54.954Z,10.47
2022-11-23T08:00:28.476Z,10.47
2022-11-23T08:05:54.273Z,10.53
2022-11-23T08:08:26.540Z,10.55
2022-11-23T08:10:58.853Z,10.57
2022-11-23T08:13:31.978Z,10.64
2022-11-23T08:16:04.827Z,10.71
2022-11-23T08:18:37.534Z,10.73
2022-11-23T08:21:09.920Z,10.75
2022-11-23T08:23:42.204Z,10.76
2022-11-23T08:26:14.553Z,10.78
2022-11-23T08:28:46.857Z,10.80
2022-11-23T08:31:19.030Z,10.85
2022-11-23T08:33:51.308Z,10.87
2022-11-23T08:36:23.567Z,10.86
2022-11-23T08:38:55.855Z,10.88
2022-11-23T08:41:29.026Z,10.89
2022-11-23T08:44:01.246Z,10.88
2022-11-23T08:46:33.748Z,10.81
2022-11-23T08:49:07.272Z,10.81
2022-11-23T08:51:41.705Z,10.84
2022-11-23T08:54:15.962Z,10.91
2022-11-23T08:56:46.972Z,10.98
2022-11-23T08:59:20.431Z,11.01
2022-11-23T09:01:52.748Z,11.06
2022-11-23T09:04:27.725Z,11.12
2022-11-23T09:07:00.106Z,11.13
2022-11-23T09:09:32.380Z,11.15
2022-11-23T09:12:05.417Z,11.16
2022-11-23T09:14:37.901Z,11.15
2022-11-23T09:17:10.303Z,11.17
2022-11-23T09:19:42.542Z,11.19
2022-11-23T09:22:15.223Z,11.21
2022-11-23T09:24:48.085Z,11.27
2022-11-23T09:27:21.298Z,11.29
2022-11-23T09:29:53.518Z,11.28
2022-11-23T09:32:26.756Z,11.29
2022-11-23T09:35:00.059Z,11.27
2022-11-23T09:37:32.348Z,11.24
2022-11-23T09:40:04.688Z,11.26
2022-11-23T09:43:02.448Z,11.37
2022-11-23T09:45:38.598Z,11.43
2022-11-23T09:48:30.027Z,11.45
2022-11-23T09:51:05.885Z,11.54
2022-11-23T09:53:40.311Z,11.65
2022-11-23T09:56:19.565Z,11.72
2022-11-23T09:58:53.774Z,11.75
2022-11-23T10:01:27.732Z,11.78
2022-11-23T10:04:01.395Z,11.78
2022-11-23T10:06:38.811Z,11.79
2022-11-23T10:09:25.229Z,11.80
2022-11-23T10:12:06.014Z,11.76
2022-11-23T10:14:49.407Z,11.79
2022-11-23T10:17:29.894Z,11.86
2022-11-23T10:20:17.618Z,11.95
2022-11-23T10:22:58.387Z,12.05
2022-11-23T10:25:39.343Z,12.14
2022-11-23T10:28:18.097Z,12.20
2022-11-23T10:30:57.616Z,12.22
2022-11-23T10:33:35.084Z,12.24
2022-11-23T10:36:10.297Z,12.25
2022-11-23T10:38:44.092Z,12.27
2022-11-23T10:41:17.427Z,12.24
2022-11-23T10:43:54.078Z,12.29
2022-11-23T10:46:39.505Z,12.31
2022-11-23T10:49:20.819Z,12.29
2022-11-23T10:51:56.362Z,12.29
2022-11-23T10:54:37.137Z,12.36
2022-11-23T10:57:31.571Z,12.41
2022-11-23T11:00:08.088Z,12.37
2022-11-23T11:02:44.459Z,12.36
2022-11-23T11:06:07.143Z,12.39
2022-11-23T11:08:23.700Z,12.46
2022-11-23T11:11:04.139Z,12.48
2022-11-23T11:19:27.504Z,12.31
2022-11-23T11:22:01.119Z,12.36
2022-11-23T11:24:35.311Z,12.42
2022-11-23T11:27:15.885Z,12.48
2022-11-23T11:29:52.078Z,12.55
2022-11-23T11:32:27.286Z,12.59
2022-11-23T11:35:05.274Z,12.63
2022-11-23T11:37:38.876Z,12.69
2022-11-23T11:40:20.351Z,12.75
2022-11-23T11:42:55.780Z,12.75
2022-11-23T11:45:29.532Z,12.78
2022-11-23T11:48:04.867Z,12.73
2022-11-23T11:50:40.551Z,12.74
2022-11-23T11:53:16.705Z,12.73
2022-11-23T11:55:54.327Z,12.67
2022-11-23T11:58:27.500Z,12.65
2022-11-23T12:01:05.411Z,12.63
2022-11-23T12:03:44.467Z,12.62
2022-11-23T12:06:26.486Z,12.63
2022-11-23T12:09:03.443Z,12.65
2022-11-23T12:11:36.886Z,12.67
2022-11-23T12:14:13.149Z,12.71
2022-11-23T12:20:52.650Z,12.82
2022-11-23T12:23:31.860Z,12.86
2022-11-23T12:26:17.613Z,12.88
2022-11-23T12:29:02.859Z,12.86
2022-11-23T12:31:41.028Z,12.81
2022-11-23T12:34:40.902Z,12.83
2022-11-23T12:37:36.632Z,12.88
2022-11-23T12:40:37.925Z,12.90
2022-11-23T12:43:15.247Z,12.93
2022-11-23T12:45:58.048Z,12.95
2022-11-23T12:48:38.258Z,12.96
2022-11-23T12:51:19.949Z,12.90
2022-11-23T12:54:00.136Z,12.89
2022-11-23T12:56:59.906Z,12.90
2022-11-23T12:59:41.315Z,12.90
2022-11-23T13:02:21.865Z,12.92
2022-11-23T13:05:27.410Z,12.95
2022-11-23T13:08:17.109Z,12.96
2022-11-23T13:10:57.101Z,12.99
2022-11-23T13:13:38.170Z,12.96
2022-11-23T13:16:25.745Z,12.93
2022-11-23T13:19:13.274Z,12.94
2022-11-23T13:21:46.850Z,12.99
2022-11-23T13:24:29.804Z,13.03
2022-11-23T13:27:32.673Z,13.07
2022-11-23T13:30:11.905Z,13.12
2022-11-23T13:32:56.578Z,13.18
2022-11-23T13:36:12.512Z,13.26
2022-11-23T13:38:47.697Z,13.27
2022-11-23T13:41:53.701Z,13.17
2022-11-23T13:44:28.028Z,13.15
2022-11-23T13:47:22.692Z,13.16
2022-11-23T13:49:55.681Z,13.14
2022-11-23T13:52:36.414Z,13.14
2022-11-23T13:55:23.471Z,13.15
2022-11-23T13:58:30.290Z,13.11
2022-11-23T14:01:03.891Z,12.95
2022-11-23T14:03:51.183Z,12.80
2022-11-23T14:06:38.591Z,12.69
2022-11-23T14:09:18.053Z,12.72
2022-11-23T14:12:03.144Z,12.71
2022-11-23T14:14:44.497Z,12.74
2022-11-23T14:17:31.221Z,12.80
2022-11-23T14:20:17.624Z,12.86
2022-11-23T14:22:59.503Z,12.88
2022-11-23T14:25:41.739Z,12.88
2022-11-23T14:28:28.656Z,12.84
2022-11-23T14:31:12.379Z,12.81
2022-11-23T14:33:47.678Z,12.77
2022-11-23T14:36:28.701Z,12.73
2022-11-23T14:39:09.537Z,12.75
2022-11-23T14:41:42.686Z,12.81
2022-11-23T14:44:16.575Z,12.87
2022-11-23T14:49:53.597Z,12.96
2022-11-23T14:52:27.611Z,12.93
2022-11-23T14:55:02.999Z,12.92
2022-11-23T14:57:41.385Z,12.86
2022-11-23T15:00:28.148Z,12.83
2022-11-23T15:03:15.347Z,12.84
2022-11-23T15:05:57.787Z,12.84
2022-11-23T15:08:32.076Z,12.82
2022-11-23T15:11:09.742Z,12.82
2022-11-23T15:13:48.255Z,12.83
2022-11-23T15:16:22.362Z,12.82
2022-11-23T15:18:54.727Z,12.79
2022-11-23T15:21:28.400Z,12.75
2022-11-23T15:24:00.859Z,12.71
2022-11-23T15:26:49.572Z,12.65
2022-11-23T15:29:40.096Z,12.61
2022-11-23T15:32:32.844Z,12.62
2022-11-23T15:35:09.315Z,12.60
2022-11-23T15:37:46.253Z,12.55
2022-11-23T15:40:21.379Z,12.47
2022-11-23T15:42:53.755Z,12.39
2022-11-23T15:45:40.680Z,12.36
2022-11-23T15:48:16.871Z,12.38
2022-11-23T15:50:53.337Z,12.36
2022-11-23T15:53:29.218Z,12.38
2022-11-23T15:56:05.401Z,12.45
2022-11-23T15:58:38.106Z,12.50
2022-11-23T16:01:14.456Z,12.57
2022-11-23T16:03:52.746Z,12.63
2022-11-23T16:06:36.502Z,12.60
2022-11-23T16:09:50.392Z,12.55
2022-11-23T16:12:27.003Z,12.53
2022-11-23T16:15:23.367Z,12.55
2022-11-23T16:17:55.972Z,12.58
2022-11-23T16:20:27.350Z,12.58
2022-11-23T16:23:01.449Z,12.58
2022-11-23T16:25:35.256Z,12.63
2022-11-23T16:28:16.373Z,12.64
2022-11-23T16:30:49.155Z,12.61
2022-11-23T16:33:23.055Z,12.64
2022-11-23T16:35:55.661Z,12.68
2022-11-23T16:38:28.783Z,12.72
2022-11-23T16:41:01.375Z,12.78
2022-11-23T16:43:34.281Z,12.85
2022-11-23T16:46:07.373Z,12.91
2022-11-23T16:48:43.066Z,12.93
2022-11-23T16:51:16.349Z,12.91
2022-11-23T16:56:43.171Z,12.78
2022-11-23T16:59:19.475Z,12.77
2022-11-23T17:01:57.254Z,12.76
2022-11-23T17:04:31.423Z,12.84
2022-11-23T17:07:04.384Z,12.80
2022-11-23T17:09:36.937Z,12.66
2022-11-23T17:12:13.569Z,12.47
2022-11-23T17:14:48.337Z,12.37
2022-11-23T17:17:22.484Z,12.31
2022-11-23T17:19:57.517Z,12.30
2022-11-23T17:22:32.665Z,12.32
2022-11-23T17:25:08.961Z,12.33
2022-11-23T17:27:48.602Z,12.37
2022-11-23T17:30:24.046Z,12.33
2022-11-23T17:32:56.713Z,12.31
2022-11-23T17:35:28.107Z,12.27
2022-11-23T17:38:00.783Z,12.27
2022-11-23T17:40:33.920Z,12.23
2022-11-23T17:43:06.471Z,12.18
2022-11-23T17:45:39.002Z,12.16
2022-11-23T17:48:15.377Z,12.19
2022-11-23T17:50:49.103Z,12.14
2022-11-23T17:53:25.388Z,12.13
2022-11-23T17:55:58.580Z,12.20
2022-11-23T17:58:31.133Z,12.30
2022-11-23T18:01:02.146Z,12.27
2022-11-23T18:03:34.715Z,12.20
2022-11-23T18:06:08.007Z,12.17
2022-11-23T18:08:40.466Z,12.14
2022-11-23T18:11:13.105Z,12.13
2022-11-23T18:13:47.221Z,12.11
2022-11-23T18:16:20.819Z,12.14
2022-11-23T18:18:53.357Z,12.15
2022-11-23T18:21:27.247Z,12.08
2022-11-23T18:24:04.334Z,12.02
2022-11-23T18:26:37.939Z,12.01
2022-11-23T18:29:16.711Z,12.06
2022-11-23T18:31:50.115Z,12.04
2022-11-23T18:34:22.583Z,12.00
2022-11-23T18:36:55.123Z,12.03
2022-11-23T18:39:28.439Z,12.07
2022-11-23T18:42:05.463Z,12.12
2022-11-23T18:44:38.822Z,12.21
2022-11-23T18:47:11.292Z,12.26
2022-11-23T18:49:47.597Z,12.23
2022-11-23T18:52:23.175Z,12.26
2022-11-23T18:54:56.434Z,12.30
2022-11-23T18:57:32.270Z,12.35
2022-11-23T19:00:06.618Z,12.43
2022-11-23T19:02:39.469Z,12.42
2022-11-23T19:05:12.197Z,12.41
2022-11-23T19:07:44.165Z,12.44
2022-11-23T19:10:17.161Z,12.39
2022-11-23T19:12:49.770Z,12.37
2022-11-23T19:15:22.241Z,12.40
2022-11-23T19:18:05.411Z,12.36
2022-11-23T19:20:46.039Z,12.35
2022-11-23T19:23:29.892Z,12.38
2022-11-23T19:26:05.495Z,12.42
2022-11-23T19:28:40.143Z,12.43
2022-11-23T19:31:14.994Z,12.42
2022-11-23T19:33:49.243Z,12.40
2022-11-23T19:36:24.084Z,12.42
2022-11-23T19:38:58.408Z,12.47
2022-11-23T19:41:32.114Z,12.52
2022-11-23T19:44:05.146Z,12.60
2022-11-23T19:46:37.786Z,12.63
2022-11-23T19:49:13.490Z,12.64
2022-11-23T19:51:47.659Z,12.66
2022-11-23T19:54:20.197Z,12.67
2022-11-23T19:56:54.516Z,12.68
2022-11-23T19:59:28.250Z,12.71
2022-11-23T20:02:00.990Z,12.71
2022-11-23T20:04:32.099Z,12.70
2022-11-23T20:07:04.607Z,12.71
2022-11-23T20:09:37.201Z,12.78
2022-11-23T20:12:10.043Z,12.88
2022-11-23T20:14:40.950Z,12.90
2022-11-23T20:17:13.491Z,12.86
2022-11-23T20:19:46.355Z,12.84
2022-11-23T20:22:19.191Z,12.82
2022-11-23T20:24:58.310Z,12.83
2022-11-23T20:27:33.718Z,12.88
2022-11-23T20:30:07.266Z,12.90
2022-11-23T20:32:39.834Z,12.83
2022-11-23T20:35:13.344Z,12.77
2022-11-23T20:37:46.728Z,12.69
2022-11-23T20:40:19.634Z,12.57
2022-11-23T20:42:52.177Z,12.55
2022-11-23T20:45:24.842Z,12.59
2022-11-23T20:47:58.335Z,12.64
2022-11-23T20:50:31.544Z,12.65
2022-11-23T20:53:04.846Z,12.65
2022-11-23T20:55:37.364Z,12.68
2022-11-23T20:58:10.096Z,12.68
2022-11-23T21:00:46.075Z,12.68
2022-11-23T21:03:21.394Z,12.68
2022-11-23T21:05:54.331Z,12.73
2022-11-23T21:08:34.316Z,12.77
2022-11-23T21:11:31.753Z,12.82
2022-11-23T21:14:15.655Z,12.88
2022-11-23T21:16:55.379Z,12.84
2022-11-23T21:19:29.978Z,12.87
2022-11-23T21:22:06.323Z,12.93
2022-11-23T21:24:39.191Z,12.98
2022-11-23T21:27:12.110Z,13.04
2022-11-23T21:29:44.293Z,13.09
2022-11-23T21:32:16.876Z,13.10
2022-11-23T21:34:49.507Z,13.12
2022-11-23T21:37:21.937Z,13.16
2022-11-23T21:39:54.606Z,13.19
2022-11-23T21:42:27.457Z,13.24
2022-11-23T21:44:59.914Z,13.31
2022-11-23T21:47:32.538Z,13.39
2022-11-23T21:50:05.166Z,13.47
2022-11-23T21:52:37.666Z,13.54
2022-11-23T21:55:11.797Z,13.59
2022-11-23T21:57:44.265Z,13.59
2022-11-23T22:00:19.154Z,13.53
2022-11-23T22:02:51.728Z,13.47
2022-11-23T22:05:24.379Z,13.42
2022-11-23T22:08:27.607Z,13.46
2022-11-23T22:10:49.390Z,13.41
2022-11-23T22:13:22.066Z,13.35
2022-11-23T22:15:54.795Z,13.39
2022-11-23T22:18:25.623Z,13.41
2022-11-23T22:20:58.266Z,13.37
2022-11-23T22:23:30.867Z,13.26
2022-11-23T22:26:05.584Z,13.04
2022-11-23T22:28:40.783Z,12.91
2022-11-23T22:31:15.111Z,12.86
2022-11-23T22:33:47.789Z,12.77
2022-11-23T22:36:19.060Z,12.60
2022-11-23T22:39:01.350Z,12.51
2022-11-23T22:41:37.499Z,12.49
2022-11-23T22:44:11.973Z,12.49
2022-11-23T22:46:47.021Z,12.45
2022-11-23T22:49:19.728Z,12.36
2022-11-23T22:51:50.593Z,12.37
2022-11-23T22:54:23.164Z,12.42
2022-11-23T22:56:55.616Z,12.44
2022-11-23T22:59:28.124Z,12.52
2022-11-23T23:02:00.613Z,12.57
2022-11-23T23:04:33.587Z,12.57
2022-11-23T23:07:06.419Z,12.55
2022-11-23T23:09:38.969Z,12.53
2022-11-23T23:12:11.472Z,12.52
2022-11-23T23:14:44.000Z,12.47
2022-11-23T23:17:16.489Z,12.54
2022-11-23T23:19:48.907Z,12.61
2022-11-23T23:22:21.389Z,12.67
2022-11-23T23:24:53.844Z,12.75
2022-11-23T23:27:26.353Z,12.84
2022-11-23T23:29:59.877Z,12.90
2022-11-23T23:32:32.519Z,12.78
2022-11-23T23:35:05.310Z,12.66
2022-11-23T23:37:37.841Z,12.64
2022-11-23T23:40:12.164Z,12.55
2022-11-23T23:42:44.644Z,12.56
2022-11-23T23:45:17.358Z,12.62
2022-11-23T23:47:49.850Z,12.65
2022-11-23T23:50:22.425Z,12.70
2022-11-23T23:52:54.950Z,12.76
2022-11-23T23:55:27.488Z,12.78
2022-11-23T23:58:02.017Z,12.76
